createdAt,value
2019-05-12T00:00:52.768Z,98407.27
2019-05-12T00:03:22.048Z,98419.20
2019-05-12T00:05:51.314Z,98424.98
2019-05-12T00:08:20.591Z,98420.73
2019-05-12T00:10:49.962Z,98421.46
2019-05-12T00:13:19.246Z,98421.39
2019-05-12T00:15:48.529Z,98420.84
2019-05-12T00:18:18.919Z,98424.16
2019-05-12T00:20:48.236Z,98427.98
2019-05-12T00:23:26.659Z,98427.52
2019-05-12T00:25:48.532Z,98435.85
2019-05-12T00:28:18.036Z,98440.57
2019-05-12T00:30:50.225Z,98445.79
2019-05-12T00:33:19.501Z,98451.61
2019-05-12T00:35:48.901Z,98455.36
2019-05-12T00:38:18.308Z,98459.97
2019-05-12T00:40:48.011Z,98459.44
2019-05-12T00:43:20.046Z,98458.34
2019-05-12T00:45:49.293Z,98468.02
2019-05-12T00:48:18.600Z,98473.38
2019-05-12T00:50:48.562Z,98481.53
2019-05-12T00:53:18.927Z,98480.69
2019-05-12T00:55:48.427Z,98476.68
2019-05-12T00:58:19.493Z,98484.77
2019-05-12T01:00:48.696Z,98492.13
2019-05-12T01:03:18.920Z,98484.16
2019-05-12T01:05:48.661Z,98484.69
2019-05-12T01:08:19.534Z,98492.20
2019-05-12T01:10:48.802Z,98501.89
2019-05-12T01:13:18.636Z,98509.95
2019-05-12T01:15:48.319Z,98507.45
2019-05-12T01:18:18.223Z,98505.66
2019-05-12T01:20:48.061Z,98520.03
2019-05-12T01:23:19.240Z,98526.88
2019-05-12T01:25:50.860Z,98516.24
2019-05-12T01:28:19.436Z,98528.56
2019-05-12T01:30:48.711Z,98525.25
2019-05-12T01:33:18.503Z,98527.98
2019-05-12T01:35:48.258Z,98542.56
2019-05-12T01:38:19.266Z,98540.17
2019-05-12T01:40:50.371Z,98533.77
2019-05-12T01:43:21.287Z,98558.48
2019-05-12T01:45:50.729Z,98563.78
2019-05-12T01:48:19.977Z,98567.68
2019-05-12T01:50:50.130Z,98572.88
2019-05-12T01:53:19.439Z,98576.02
2019-05-12T01:55:48.718Z,98575.35
2019-05-12T01:58:19.303Z,98584.33
2019-05-12T02:00:55.703Z,98580.48
2019-05-12T02:03:24.971Z,98580.64
2019-05-12T02:05:57.962Z,98588.31
2019-05-12T02:08:32.783Z,98594.00
2019-05-12T02:11:19.866Z,98603.03
2019-05-12T02:13:49.154Z,98612.08
2019-05-12T02:16:18.974Z,98625.60
2019-05-12T02:18:49.050Z,98626.63
2019-05-12T02:21:19.025Z,98634.23
2019-05-12T02:23:48.517Z,98634.05
2019-05-12T02:26:19.107Z,98644.75
2019-05-12T02:28:48.403Z,98645.73
2019-05-12T02:31:20.602Z,98650.36
2019-05-12T02:33:48.704Z,98653.84
2019-05-12T02:36:18.097Z,98669.18
2019-05-12T02:38:47.360Z,98673.78
2019-05-12T02:41:16.634Z,98679.98
2019-05-12T02:43:46.127Z,98684.17
2019-05-12T02:46:15.935Z,98687.55
2019-05-12T02:48:45.254Z,98690.48
2019-05-12T02:51:16.099Z,98691.03
2019-05-12T02:53:46.986Z,98702.33
2019-05-12T02:56:19.656Z,98714.56
2019-05-12T02:58:49.934Z,98726.75
2019-05-12T03:01:20.157Z,98730.73
2019-05-12T03:03:54.730Z,98738.30
2019-05-12T03:06:25.308Z,98742.86
2019-05-12T03:08:57.550Z,98745.89
2019-05-12T03:11:29.408Z,98749.28
2019-05-12T03:13:58.683Z,98751.89
2019-05-12T03:16:27.982Z,98756.70
2019-05-12T03:18:57.345Z,98762.69
2019-05-12T03:21:26.654Z,98763.88
2019-05-12T03:23:57.155Z,98765.66
2019-05-12T03:26:26.426Z,98768.62
2019-05-12T03:28:55.811Z,98776.22
2019-05-12T03:31:31.602Z,98784.44
2019-05-12T03:33:59.896Z,98793.08
2019-05-12T03:36:34.858Z,98798.63
2019-05-12T03:38:59.884Z,98808.15
2019-05-12T03:41:29.148Z,98803.12
2019-05-12T03:43:59.916Z,98806.63
2019-05-12T03:46:29.179Z,98810.80
2019-05-12T03:48:59.944Z,98818.84
2019-05-12T03:51:29.236Z,98826.70
2019-05-12T03:53:58.552Z,98829.98
2019-05-12T03:56:27.837Z,98840.84
2019-05-12T03:58:57.121Z,98841.38
2019-05-12T04:01:26.637Z,98846.70
2019-05-12T04:03:56.323Z,98849.63
2019-05-12T04:06:26.935Z,98857.19
2019-05-12T04:08:59.939Z,98857.22
2019-05-12T04:11:27.197Z,98864.11
2019-05-12T04:13:56.449Z,98868.80
2019-05-12T04:16:25.734Z,98870.61
2019-05-12T04:18:55.376Z,98878.84
2019-05-12T04:21:24.821Z,98868.80
2019-05-12T04:23:55.021Z,98891.05
2019-05-12T04:26:25.563Z,98897.84
2019-05-12T04:28:55.067Z,98890.28
2019-05-12T04:31:25.033Z,98896.74
2019-05-12T04:33:54.993Z,98887.70
2019-05-12T04:36:25.015Z,98893.01
2019-05-12T04:38:55.580Z,98891.53
2019-05-12T04:41:26.208Z,98902.86
2019-05-12T04:43:55.672Z,98898.45
2019-05-12T04:46:25.431Z,98910.08
2019-05-12T04:48:54.942Z,98921.08
2019-05-12T04:51:25.902Z,98927.84
2019-05-12T04:53:55.199Z,98929.10
2019-05-12T04:56:25.128Z,98926.50
2019-05-12T04:58:54.832Z,98932.20
2019-05-12T05:01:25.379Z,98933.11
2019-05-12T05:03:54.932Z,98935.69
2019-05-12T05:06:25.429Z,98936.25
2019-05-12T05:08:54.963Z,98939.82
2019-05-12T05:11:25.162Z,98940.66
2019-05-12T05:13:55.053Z,98943.55
2019-05-12T05:16:24.969Z,98947.80
2019-05-12T05:18:54.497Z,98953.42
2019-05-12T05:21:24.121Z,98955.28
2019-05-12T05:23:53.789Z,98953.48
2019-05-12T05:26:27.755Z,98964.05
2019-05-12T05:28:54.392Z,98968.43
2019-05-12T05:31:24.447Z,98979.13
2019-05-12T05:33:53.814Z,98984.55
2019-05-12T05:36:25.012Z,98985.32
2019-05-12T05:38:59.686Z,98989.27
2019-05-12T05:41:25.290Z,98983.58
2019-05-12T05:43:58.363Z,98987.17
2019-05-12T05:46:25.843Z,98997.16
2019-05-12T05:48:55.122Z,98996.44
2019-05-12T05:51:24.410Z,99002.25
2019-05-12T05:53:55.463Z,98998.77
2019-05-12T05:56:38.717Z,99008.16
2019-05-12T05:58:55.744Z,99009.28
2019-05-12T06:01:25.031Z,99008.91
2019-05-12T06:03:58.431Z,99013.91
2019-05-12T06:06:50.425Z,99013.80
2019-05-12T06:09:00.027Z,99024.25
2019-05-12T06:11:29.361Z,99024.50
2019-05-12T06:14:03.241Z,99029.55
2019-05-12T06:16:30.869Z,99036.66
2019-05-12T06:19:00.138Z,99035.74
2019-05-12T06:21:36.823Z,99034.95
2019-05-12T06:24:00.526Z,99038.58
2019-05-12T06:26:33.325Z,99039.69
2019-05-12T06:29:00.826Z,99049.47
2019-05-12T06:31:30.197Z,99053.22
2019-05-12T06:33:59.503Z,99050.69
2019-05-12T06:36:30.267Z,99058.97
2019-05-12T06:39:00.594Z,99060.70
2019-05-12T06:41:29.923Z,99071.70
2019-05-12T06:43:59.242Z,99062.20
2019-05-12T06:46:28.576Z,99070.23
2019-05-12T06:49:00.816Z,99069.23
2019-05-12T06:51:28.859Z,99071.34
2019-05-12T06:54:00.816Z,99070.98
2019-05-12T06:56:29.132Z,99080.25
2019-05-12T06:59:00.934Z,99083.36
2019-05-12T07:01:30.498Z,99084.56
2019-05-12T07:04:00.588Z,99085.20
2019-05-12T07:06:30.782Z,99080.88
2019-05-12T07:09:06.429Z,99090.32
2019-05-12T07:11:44.537Z,99096.47
2019-05-12T07:14:07.985Z,99099.66
2019-05-12T07:16:34.673Z,99101.15
2019-05-12T07:19:08.960Z,99105.95
2019-05-12T07:21:34.970Z,99100.80
2019-05-12T07:24:06.604Z,99113.92
2019-05-12T07:26:35.416Z,99112.91
2019-05-12T07:29:04.710Z,99118.05
2019-05-12T07:31:34.190Z,99112.78
2019-05-12T07:34:07.460Z,99119.96
2019-05-12T07:36:36.038Z,99124.05
2019-05-12T07:39:08.578Z,99118.97
2019-05-12T07:41:42.252Z,99120.36
2019-05-12T07:44:11.222Z,99125.28
2019-05-12T07:46:45.641Z,99126.87
2019-05-12T07:49:11.509Z,99124.11
2019-05-12T07:51:40.907Z,99132.77
2019-05-12T07:54:10.248Z,99136.33
2019-05-12T07:56:41.058Z,99138.80
2019-05-12T07:59:10.686Z,99145.62
2019-05-12T08:01:45.274Z,99141.95
2019-05-12T08:04:13.308Z,99149.58
2019-05-12T08:06:46.051Z,99150.81
2019-05-12T08:09:18.249Z,99151.86
2019-05-12T08:11:47.516Z,99158.56
2019-05-12T08:14:27.786Z,99160.86
2019-05-12T08:16:47.801Z,99164.02
2019-05-12T08:19:23.858Z,99167.64
2019-05-12T08:21:49.318Z,99171.61
2019-05-12T08:24:20.147Z,99172.77
2019-05-12T08:26:58.732Z,99178.48
2019-05-12T08:29:22.072Z,99183.89
2019-05-12T08:31:51.548Z,99191.55
2019-05-12T08:34:20.840Z,99183.84
2019-05-12T08:36:53.360Z,99188.23
2019-05-12T08:39:23.606Z,99188.28
2019-05-12T08:41:53.495Z,99187.66
2019-05-12T08:44:24.836Z,99188.81
2019-05-12T08:46:56.511Z,99193.44
2019-05-12T08:49:24.913Z,99197.58
2019-05-12T08:51:55.791Z,99196.75
2019-05-12T08:54:25.196Z,99191.64
2019-05-12T08:56:59.203Z,99194.42
2019-05-12T08:59:27.452Z,99198.84
2019-05-12T09:02:00.467Z,99203.09
2019-05-12T09:04:27.535Z,99206.13
2019-05-12T09:06:59.811Z,99210.91
2019-05-12T09:09:30.571Z,99214.48
2019-05-12T09:11:59.947Z,99223.09
2019-05-12T09:14:33.530Z,99220.52
2019-05-12T09:17:02.612Z,99225.03
2019-05-12T09:19:33.560Z,99226.45
2019-05-12T09:22:05.463Z,99231.75
2019-05-12T09:24:33.996Z,99228.11
2019-05-12T09:27:05.006Z,99231.33
2019-05-12T09:29:35.944Z,99231.69
2019-05-12T09:32:09.474Z,99235.61
2019-05-12T09:34:38.474Z,99236.39
2019-05-12T09:37:11.622Z,99238.48
2019-05-12T09:39:46.643Z,99241.83
2019-05-12T09:42:19.159Z,99242.29
2019-05-12T09:44:49.653Z,99250.81
2019-05-12T09:47:27.115Z,99248.05
2019-05-12T09:49:53.585Z,99250.81
2019-05-12T09:52:27.064Z,99250.82
2019-05-12T09:54:59.110Z,99257.05
2019-05-12T09:57:32.417Z,99259.11
2019-05-12T10:00:04.244Z,99261.42
2019-05-12T10:02:33.736Z,99261.23
2019-05-12T10:05:04.100Z,99268.51
2019-05-12T10:07:34.480Z,99273.12
2019-05-12T10:10:05.654Z,99270.81
2019-05-12T10:12:45.110Z,99278.75
2019-05-12T10:15:13.538Z,99280.34
2019-05-12T10:17:44.502Z,99280.84
2019-05-12T10:20:14.417Z,99275.80
2019-05-12T10:22:44.593Z,99286.91
2019-05-12T10:25:14.991Z,99276.41
2019-05-12T10:27:45.000Z,99286.45
2019-05-12T10:30:17.335Z,99295.37
2019-05-12T10:32:48.136Z,99300.67
2019-05-12T10:35:21.866Z,99291.88
2019-05-12T10:37:50.580Z,99301.97
2019-05-12T10:40:23.355Z,99295.31
2019-05-12T10:42:53.566Z,99306.56
2019-05-12T10:45:25.639Z,99300.37
2019-05-12T10:47:56.586Z,99310.66
2019-05-12T10:50:26.660Z,99301.55
2019-05-12T10:53:04.620Z,99304.25
2019-05-12T10:55:35.619Z,99311.02
2019-05-12T10:58:07.099Z,99322.95
2019-05-12T11:00:38.848Z,99315.81
2019-05-12T11:03:12.186Z,99319.28
2019-05-12T11:05:39.875Z,99315.16
2019-05-12T11:08:11.337Z,99328.40
2019-05-12T11:10:41.343Z,99328.40
2019-05-12T11:13:14.007Z,99329.17
2019-05-12T11:15:46.169Z,99324.20
2019-05-12T11:18:20.647Z,99321.05
2019-05-12T11:20:47.561Z,99325.02
2019-05-12T11:23:16.862Z,99325.55
2019-05-12T11:25:46.241Z,99321.22
2019-05-12T11:28:15.511Z,99320.14
2019-05-12T11:30:44.833Z,99320.35
2019-05-12T11:33:14.908Z,99320.73
2019-05-12T11:35:44.214Z,99324.08
2019-05-12T11:38:13.684Z,99324.52
2019-05-12T11:40:43.751Z,99316.36
2019-05-12T11:43:14.410Z,99318.97
2019-05-12T11:45:44.294Z,99310.53
2019-05-12T11:48:14.371Z,99324.30
2019-05-12T11:50:47.775Z,99319.83
2019-05-12T11:53:15.009Z,99333.08
2019-05-12T11:55:44.343Z,99334.36
2019-05-12T11:58:13.782Z,99322.75
2019-05-12T12:00:45.895Z,99324.05
2019-05-12T12:03:18.127Z,99327.97
2019-05-12T12:05:46.461Z,99315.12
2019-05-12T12:08:15.850Z,99333.64
2019-05-12T12:10:45.276Z,99335.92
2019-05-12T12:13:19.238Z,99332.77
2019-05-12T12:15:47.041Z,99339.42
2019-05-12T12:18:19.628Z,99330.70
2019-05-12T12:20:55.105Z,99336.39
2019-05-12T12:23:22.142Z,99347.81
2019-05-12T12:25:53.430Z,99348.95
2019-05-12T12:28:24.291Z,99340.72
2019-05-12T12:30:56.763Z,99338.81
2019-05-12T12:33:25.571Z,99344.44
2019-05-12T12:35:56.786Z,99346.20
2019-05-12T12:38:28.269Z,99348.20
2019-05-12T12:40:59.893Z,99348.78
2019-05-12T12:43:33.424Z,99342.61
2019-05-12T12:46:21.381Z,99342.58
2019-05-12T12:48:50.168Z,99352.11
2019-05-12T12:51:19.748Z,99353.31
2019-05-12T12:53:49.577Z,99353.59
2019-05-12T12:56:27.724Z,99363.79
2019-05-12T12:58:55.429Z,99365.16
2019-05-12T13:01:28.705Z,99365.77
2019-05-12T13:03:59.493Z,99370.53
2019-05-12T13:06:27.476Z,99373.16
2019-05-12T13:08:56.816Z,99376.82
2019-05-12T13:11:33.217Z,99363.48
2019-05-12T13:13:57.095Z,99362.02
2019-05-12T13:16:26.370Z,99378.06
2019-05-12T13:18:55.626Z,99375.09
2019-05-12T13:21:24.917Z,99371.89
2019-05-12T13:23:54.175Z,99370.38
2019-05-12T13:26:23.968Z,99374.59
2019-05-12T13:28:55.037Z,99372.28
2019-05-12T13:31:24.547Z,99375.83
2019-05-12T13:33:56.474Z,99378.41
2019-05-12T13:36:39.189Z,99379.91
2019-05-12T13:39:11.354Z,99392.05
2019-05-12T13:41:38.922Z,99379.84
2019-05-12T13:44:08.286Z,99387.49
2019-05-12T13:46:37.547Z,99394.38
2019-05-12T13:49:06.862Z,99388.67
2019-05-12T13:51:36.178Z,99373.08
2019-05-12T13:54:07.278Z,99381.38
2019-05-12T13:56:36.577Z,99383.23
2019-05-12T13:59:05.888Z,99385.80
2019-05-12T14:01:40.171Z,99379.49
2019-05-12T14:04:06.207Z,99384.59
2019-05-12T14:06:37.797Z,99380.62
2019-05-12T14:09:07.434Z,99377.55
2019-05-12T14:11:36.923Z,99378.36
2019-05-12T14:14:11.342Z,99375.31
2019-05-12T14:16:38.031Z,99382.53
2019-05-12T14:19:07.743Z,99386.36
2019-05-12T14:21:41.274Z,99384.09
2019-05-12T14:24:08.556Z,99381.69
2019-05-12T14:26:39.423Z,99377.73
2019-05-12T14:29:09.366Z,99386.13
2019-05-12T14:31:45.342Z,99385.22
2019-05-12T14:34:18.900Z,99381.91
2019-05-12T14:36:43.332Z,99376.23
2019-05-12T14:39:13.997Z,99377.12
2019-05-12T14:41:53.261Z,99379.91
2019-05-12T14:44:17.493Z,99380.16
2019-05-12T14:46:50.631Z,99392.30
2019-05-12T14:49:20.445Z,99380.62
2019-05-12T14:51:49.192Z,99380.84
2019-05-12T14:54:18.599Z,99377.63
2019-05-12T14:56:55.760Z,99371.62
2019-05-12T14:59:20.250Z,99367.87
2019-05-12T15:01:57.256Z,99374.84
2019-05-12T15:04:28.005Z,99378.77
2019-05-12T15:06:53.417Z,99381.73
2019-05-12T15:09:24.621Z,99374.81
2019-05-12T15:11:54.038Z,99378.78
2019-05-12T15:14:26.725Z,99379.36
2019-05-12T15:16:54.366Z,99383.56
2019-05-12T15:19:27.826Z,99383.80
2019-05-12T15:21:54.635Z,99392.22
2019-05-12T15:24:25.719Z,99378.39
2019-05-12T15:26:57.524Z,99376.75
2019-05-12T15:29:26.077Z,99383.86
2019-05-12T15:31:56.754Z,99384.02
2019-05-12T15:34:26.189Z,99389.42
2019-05-12T15:36:57.348Z,99385.66
2019-05-12T15:39:27.006Z,99377.20
2019-05-12T15:41:58.492Z,99381.98
2019-05-12T15:44:31.678Z,99383.95
2019-05-12T15:46:58.470Z,99388.89
2019-05-12T15:49:28.076Z,99386.55
2019-05-12T15:51:58.747Z,99394.80
2019-05-12T15:54:30.909Z,99397.55
2019-05-12T15:56:59.189Z,99396.16
2019-05-12T15:59:28.552Z,99406.70
2019-05-12T16:02:11.825Z,99404.03
2019-05-12T16:04:34.698Z,99410.24
2019-05-12T16:07:00.128Z,99409.23
2019-05-12T16:09:29.432Z,99420.22
2019-05-12T16:11:59.656Z,99418.27
2019-05-12T16:14:36.900Z,99423.39
2019-05-12T16:17:05.995Z,99420.81
2019-05-12T16:19:34.484Z,99437.36
2019-05-12T16:22:03.862Z,99436.62
2019-05-12T16:24:34.086Z,99435.64
2019-05-12T16:27:05.022Z,99433.14
2019-05-12T16:29:38.989Z,99439.92
2019-05-12T16:32:23.127Z,99440.03
2019-05-12T16:34:44.910Z,99443.89
2019-05-12T16:37:14.059Z,99443.88
2019-05-12T16:39:47.135Z,99450.81
2019-05-12T16:42:14.543Z,99452.98
2019-05-12T16:44:44.138Z,99459.95
2019-05-12T16:47:18.837Z,99456.39
2019-05-12T16:49:44.743Z,99457.28
2019-05-12T16:52:14.185Z,99456.84
2019-05-12T16:54:43.915Z,99460.05
2019-05-12T16:57:18.185Z,99469.95
2019-05-12T16:59:46.627Z,99464.34
2019-05-12T17:02:15.974Z,99460.89
2019-05-12T17:04:47.222Z,99467.04
2019-05-12T17:07:20.765Z,99476.77
2019-05-12T17:09:49.900Z,99473.78
2019-05-12T17:12:23.919Z,99475.03
2019-05-12T17:14:50.613Z,99475.59
2019-05-12T17:17:21.215Z,99471.12
2019-05-12T17:19:53.868Z,99476.75
2019-05-12T17:22:24.646Z,99478.75
2019-05-12T17:24:54.610Z,99482.25
2019-05-12T17:27:27.315Z,99490.59
2019-05-12T17:29:56.801Z,99482.81
2019-05-12T17:32:26.220Z,99491.80
2019-05-12T17:34:55.546Z,99490.05
2019-05-12T17:37:25.931Z,99497.05
2019-05-12T17:39:55.259Z,99498.17
2019-05-12T17:42:26.976Z,99496.75
2019-05-12T17:44:55.655Z,99494.16
2019-05-12T17:47:26.384Z,99499.02
2019-05-12T17:50:00.532Z,99503.34
2019-05-12T17:52:27.008Z,99504.03
2019-05-12T17:55:04.569Z,99509.48
2019-05-12T17:57:28.417Z,99516.34
2019-05-12T17:59:59.931Z,99519.73
2019-05-12T18:02:28.912Z,99519.91
2019-05-12T18:05:01.322Z,99517.65
2019-05-12T18:07:29.699Z,99527.78
2019-05-12T18:10:00.575Z,99522.14
2019-05-12T18:12:36.505Z,99530.97
2019-05-12T18:15:04.043Z,99534.06
2019-05-12T18:17:33.870Z,99538.11
2019-05-12T18:20:04.113Z,99539.66
2019-05-12T18:22:34.008Z,99552.97
2019-05-12T18:25:04.456Z,99543.81
2019-05-12T18:27:34.970Z,99553.32
2019-05-12T18:30:07.120Z,99548.25
2019-05-12T18:32:38.235Z,99548.41
2019-05-12T18:35:07.865Z,99560.10
2019-05-12T18:37:37.580Z,99559.37
2019-05-12T18:40:08.114Z,99565.34
2019-05-12T18:42:37.844Z,99571.47
2019-05-12T18:45:11.891Z,99576.66
2019-05-12T18:47:39.710Z,99579.16
2019-05-12T18:50:09.048Z,99577.31
2019-05-12T18:52:42.994Z,99579.48
2019-05-12T18:55:10.951Z,99580.29
2019-05-12T18:57:46.223Z,99585.05
2019-05-12T19:00:19.065Z,99595.38
2019-05-12T19:02:51.023Z,99596.52
2019-05-12T19:05:23.789Z,99598.02
2019-05-12T19:07:54.284Z,99600.86
2019-05-12T19:10:24.256Z,99605.20
2019-05-12T19:13:01.219Z,99606.26
2019-05-12T19:15:24.867Z,99609.39
2019-05-12T19:17:55.533Z,99615.68
2019-05-12T19:20:25.347Z,99623.73
2019-05-12T19:22:59.732Z,99624.40
2019-05-12T19:25:30.096Z,99625.60
2019-05-12T19:28:06.054Z,99634.62
2019-05-12T19:30:28.588Z,99629.54
2019-05-12T19:33:00.110Z,99631.16
2019-05-12T19:35:31.082Z,99628.56
2019-05-12T19:38:01.998Z,99642.74
2019-05-12T19:40:32.910Z,99637.91
2019-05-12T19:43:08.086Z,99650.64
2019-05-12T19:45:33.881Z,99647.09
2019-05-12T19:48:05.721Z,99659.15
2019-05-12T19:50:35.130Z,99660.03
2019-05-12T19:53:04.960Z,99664.13
2019-05-12T19:55:34.324Z,99659.05
2019-05-12T19:58:11.215Z,99663.96
2019-05-12T20:00:34.939Z,99666.98
2019-05-12T20:03:08.360Z,99661.09
2019-05-12T20:05:36.136Z,99678.31
2019-05-12T20:08:05.756Z,99670.42
2019-05-12T20:10:43.596Z,99671.79
2019-05-12T20:13:06.853Z,99676.31
2019-05-12T20:15:40.936Z,99682.23
2019-05-12T20:18:07.411Z,99684.47
2019-05-12T20:20:41.498Z,99683.42
2019-05-12T20:23:07.944Z,99687.59
2019-05-12T20:25:40.015Z,99689.44
2019-05-12T20:28:11.409Z,99690.88
2019-05-12T20:30:43.661Z,99694.59
2019-05-12T20:33:13.753Z,99694.74
2019-05-12T20:35:45.207Z,99694.67
2019-05-12T20:38:15.068Z,99697.57
2019-05-12T20:40:44.570Z,99694.34
2019-05-12T20:43:14.889Z,99696.08
2019-05-12T20:45:45.703Z,99698.20
2019-05-12T20:48:19.720Z,99698.32
2019-05-12T20:50:46.696Z,99704.50
2019-05-12T20:53:15.973Z,99700.34
2019-05-12T20:55:45.654Z,99710.53
2019-05-12T20:58:15.175Z,99701.46
2019-05-12T21:00:49.940Z,99711.78
2019-05-12T21:03:16.182Z,99712.20
2019-05-12T21:05:50.663Z,99719.85
2019-05-12T21:08:17.271Z,99715.00
2019-05-12T21:10:47.190Z,99710.03
2019-05-12T21:13:20.347Z,99714.62
2019-05-12T21:15:48.460Z,99718.48
2019-05-12T21:18:17.714Z,99720.38
2019-05-12T21:20:52.176Z,99722.95
2019-05-12T21:23:18.597Z,99717.64
2019-05-12T21:25:52.338Z,99727.57
2019-05-12T21:28:19.167Z,99729.78
2019-05-12T21:30:50.110Z,99726.80
2019-05-12T21:33:19.938Z,99725.97
2019-05-12T21:35:49.245Z,99721.88
2019-05-12T21:38:23.877Z,99729.13
2019-05-12T21:40:50.314Z,99725.95
2019-05-12T21:43:19.888Z,99724.45
2019-05-12T21:45:49.573Z,99726.91
2019-05-12T21:48:23.627Z,99735.16
2019-05-12T21:50:53.153Z,99735.20
2019-05-12T21:53:23.935Z,99730.88
2019-05-12T21:56:03.361Z,99732.30
2019-05-12T21:58:25.718Z,99728.32
2019-05-12T22:01:04.153Z,99731.58
2019-05-12T22:03:33.286Z,99738.44
2019-05-12T22:06:06.412Z,99729.55
2019-05-12T22:08:34.291Z,99742.95
2019-05-12T22:11:09.100Z,99740.33
2019-05-12T22:13:35.617Z,99744.06
2019-05-12T22:16:05.449Z,99740.73
2019-05-12T22:18:35.181Z,99744.81
2019-05-12T22:21:06.897Z,99745.42
2019-05-12T22:23:36.719Z,99746.80
2019-05-12T22:26:07.269Z,99746.29
2019-05-12T22:28:40.515Z,99750.94
2019-05-12T22:31:09.111Z,99755.65
2019-05-12T22:33:40.892Z,99757.47
2019-05-12T22:36:24.450Z,99762.27
2019-05-12T22:38:41.249Z,99759.80
2019-05-12T22:41:10.515Z,99756.95
2019-05-12T22:43:41.363Z,99750.23
2019-05-12T22:46:10.799Z,99752.87
2019-05-12T22:48:40.704Z,99752.56
2019-05-12T22:51:15.226Z,99757.85
2019-05-12T22:53:43.239Z,99762.91
2019-05-12T22:56:17.559Z,99757.85
2019-05-12T22:58:44.164Z,99760.43
2019-05-12T23:01:15.444Z,99760.58
2019-05-12T23:03:51.358Z,99759.63
2019-05-12T23:06:23.806Z,99769.19
2019-05-12T23:08:49.666Z,99768.08
2019-05-12T23:11:25.420Z,99767.36
2019-05-12T23:13:53.208Z,99767.36
2019-05-12T23:16:25.830Z,99768.89
2019-05-12T23:18:54.494Z,99775.71
2019-05-12T23:21:25.246Z,99773.72
2019-05-12T23:23:57.099Z,99775.13
2019-05-12T23:26:25.551Z,99778.88
2019-05-12T23:28:55.934Z,99777.34
2019-05-12T23:31:30.039Z,99779.13
2019-05-12T23:33:56.272Z,99777.34
2019-05-12T23:36:35.557Z,99781.55
2019-05-12T23:39:00.357Z,99784.53
2019-05-12T23:41:27.549Z,99781.84
2019-05-12T23:43:56.857Z,99778.05
2019-05-12T23:46:27.605Z,99787.11
2019-05-12T23:48:56.909Z,99789.20
2019-05-12T23:51:26.181Z,99783.88
2019-05-12T23:53:55.458Z,99780.75
2019-05-12T23:56:24.744Z,99779.91
2019-05-12T23:58:54.064Z,99773.06
